sensor_id;sensor_type;location;lat;lon;timestamp;temperature;humidity
13409;DHT22;6775;49.574;11.170;2023-01-26T00:02:17;1.40;99.90
13409;DHT22;6775;49.574;11.170;2023-01-26T00:04:45;1.30;99.90
13409;DHT22;6775;49.574;11.170;2023-01-26T00:07:12;1.30;99.90
13409;DHT22;6775;49.574;11.170;2023-01-26T00:09:40;1.30;99.90
13409;DHT22;6775;49.574;11.170;2023-01-26T00:12:08;1.20;99.90
13409;DHT22;6775;49.574;11.170;2023-01-26T00:14:36;1.20;99.90
13409;DHT22;6775;49.574;11.170;2023-01-26T00:17:19;1.10;99.90
13409;DHT22;6775;49.574;11.170;2023-01-26T00:19:53;0.90;99.90
13409;DHT22;6775;49.574;11.170;2023-01-26T00:22:22;0.80;99.90
13409;DHT22;6775;49.574;11.170;2023-01-26T00:24:50;0.80;99.90
13409;DHT22;6775;49.574;11.170;2023-01-26T00:27:18;0.70;99.90
13409;DHT22;6775;49.574;11.170;2023-01-26T00:29:46;0.70;99.90
13409;DHT22;6775;49.574;11.170;2023-01-26T00:32:14;0.70;99.90
13409;DHT22;6775;49.574;11.170;2023-01-26T00:34:43;0.70;99.90
13409;DHT22;6775;49.574;11.170;2023-01-26T00:37:11;0.80;99.90
13409;DHT22;6775;49.574;11.170;2023-01-26T00:39:39;0.90;99.90
13409;DHT22;6775;49.574;11.170;2023-01-26T00:42:07;0.90;99.90
13409;DHT22;6775;49.574;11.170;2023-01-26T00:44:40;1.00;99.90
13409;DHT22;6775;49.574;11.170;2023-01-26T00:47:10;1.00;99.90
13409;DHT22;6775;49.574;11.170;2023-01-26T00:49:38;1.10;99.90
13409;DHT22;6775;49.574;11.170;2023-01-26T00:52:07;1.10;99.90
13409;DHT22;6775;49.574;11.170;2023-01-26T00:54:35;1.10;99.90
13409;DHT22;6775;49.574;11.170;2023-01-26T00:57:03;1.10;99.90
13409;DHT22;6775;49.574;11.170;2023-01-26T00:59:31;1.00;99.90
13409;DHT22;6775;49.574;11.170;2023-01-26T01:01:59;1.00;99.90
13409;DHT22;6775;49.574;11.170;2023-01-26T01:04:28;1.00;99.90
13409;DHT22;6775;49.574;11.170;2023-01-26T01:06:56;1.00;99.90
13409;DHT22;6775;49.574;11.170;2023-01-26T01:09:25;1.00;99.90
13409;DHT22;6775;49.574;11.170;2023-01-26T01:11:56;0.90;99.90
13409;DHT22;6775;49.574;11.170;2023-01-26T01:14:24;1.00;99.90
13409;DHT22;6775;49.574;11.170;2023-01-26T01:16:52;0.90;99.90
13409;DHT22;6775;49.574;11.170;2023-01-26T01:19:19;0.90;99.90
13409;DHT22;6775;49.574;11.170;2023-01-26T01:21:47;1.00;99.90
13409;DHT22;6775;49.574;11.170;2023-01-26T01:24:15;1.00;99.90
13409;DHT22;6775;49.574;11.170;2023-01-26T01:26:44;0.90;99.90
13409;DHT22;6775;49.574;11.170;2023-01-26T01:29:13;0.90;99.90
13409;DHT22;6775;49.574;11.170;2023-01-26T01:31:41;0.90;99.90
13409;DHT22;6775;49.574;11.170;2023-01-26T01:34:09;0.90;99.90
13409;DHT22;6775;49.574;11.170;2023-01-26T01:36:37;1.00;99.90
13409;DHT22;6775;49.574;11.170;2023-01-26T01:39:05;1.10;99.90
13409;DHT22;6775;49.574;11.170;2023-01-26T01:41:33;1.10;99.90
13409;DHT22;6775;49.574;11.170;2023-01-26T01:44:16;1.10;99.90
13409;DHT22;6775;49.574;11.170;2023-01-26T01:46:50;1.20;99.90
13409;DHT22;6775;49.574;11.170;2023-01-26T01:49:23;1.20;99.90
13409;DHT22;6775;49.574;11.170;2023-01-26T01:51:56;1.20;99.90
13409;DHT22;6775;49.574;11.170;2023-01-26T01:54:31;1.20;99.90
13409;DHT22;6775;49.574;11.170;2023-01-26T01:57:01;1.20;99.90
13409;DHT22;6775;49.574;11.170;2023-01-26T01:59:31;1.20;99.90
13409;DHT22;6775;49.574;11.170;2023-01-26T02:02:00;1.20;99.90
13409;DHT22;6775;49.574;11.170;2023-01-26T02:04:28;1.20;99.90
13409;DHT22;6775;49.574;11.170;2023-01-26T02:06:58;1.20;99.90
13409;DHT22;6775;49.574;11.170;2023-01-26T02:09:29;1.20;99.90
13409;DHT22;6775;49.574;11.170;2023-01-26T02:12:18;1.20;99.90
13409;DHT22;6775;49.574;11.170;2023-01-26T02:14:49;1.20;99.90
13409;DHT22;6775;49.574;11.170;2023-01-26T02:17:18;1.20;99.90
13409;DHT22;6775;49.574;11.170;2023-01-26T02:19:53;1.20;99.90
13409;DHT22;6775;49.574;11.170;2023-01-26T02:22:30;1.30;99.90
13409;DHT22;6775;49.574;11.170;2023-01-26T02:25:05;1.30;99.90
13409;DHT22;6775;49.574;11.170;2023-01-26T02:27:35;1.30;99.90
13409;DHT22;6775;49.574;11.170;2023-01-26T02:30:05;1.30;99.90
13409;DHT22;6775;49.574;11.170;2023-01-26T02:32:34;1.30;99.90
13409;DHT22;6775;49.574;11.170;2023-01-26T02:35:02;1.30;99.90
13409;DHT22;6775;49.574;11.170;2023-01-26T02:37:30;1.30;99.90
13409;DHT22;6775;49.574;11.170;2023-01-26T02:39:59;1.20;99.90
13409;DHT22;6775;49.574;11.170;2023-01-26T02:42:28;1.20;99.90
13409;DHT22;6775;49.574;11.170;2023-01-26T02:45:07;1.20;99.90
13409;DHT22;6775;49.574;11.170;2023-01-26T02:47:35;1.20;99.90
13409;DHT22;6775;49.574;11.170;2023-01-26T02:50:03;1.20;99.90
13409;DHT22;6775;49.574;11.170;2023-01-26T02:52:32;1.20;99.90
13409;DHT22;6775;49.574;11.170;2023-01-26T02:55:00;1.20;99.90
13409;DHT22;6775;49.574;11.170;2023-01-26T02:57:46;1.30;99.90
13409;DHT22;6775;49.574;11.170;2023-01-26T03:02:45;1.30;99.90
13409;DHT22;6775;49.574;11.170;2023-01-26T03:05:13;1.30;99.90
13409;DHT22;6775;49.574;11.170;2023-01-26T03:07:41;1.20;99.90
13409;DHT22;6775;49.574;11.170;2023-01-26T03:10:09;1.20;99.90
13409;DHT22;6775;49.574;11.170;2023-01-26T03:12:38;1.20;99.90
13409;DHT22;6775;49.574;11.170;2023-01-26T03:15:07;1.10;99.90
13409;DHT22;6775;49.574;11.170;2023-01-26T03:18:00;1.10;99.90
13409;DHT22;6775;49.574;11.170;2023-01-26T03:21:02;1.10;99.90
13409;DHT22;6775;49.574;11.170;2023-01-26T03:23:47;1.10;99.90
13409;DHT22;6775;49.574;11.170;2023-01-26T03:26:33;1.00;99.90
13409;DHT22;6775;49.574;11.170;2023-01-26T03:29:18;1.10;99.90
13409;DHT22;6775;49.574;11.170;2023-01-26T03:31:46;1.10;99.90
13409;DHT22;6775;49.574;11.170;2023-01-26T03:34:16;1.10;99.90
13409;DHT22;6775;49.574;11.170;2023-01-26T03:36:44;1.10;99.90
13409;DHT22;6775;49.574;11.170;2023-01-26T03:39:12;1.10;99.90
13409;DHT22;6775;49.574;11.170;2023-01-26T03:42:01;1.10;99.90
13409;DHT22;6775;49.574;11.170;2023-01-26T03:44:46;1.10;99.90
13409;DHT22;6775;49.574;11.170;2023-01-26T03:47:32;1.10;99.90
13409;DHT22;6775;49.574;11.170;2023-01-26T03:50:19;1.10;99.90
13409;DHT22;6775;49.574;11.170;2023-01-26T03:53:12;1.10;99.90
13409;DHT22;6775;49.574;11.170;2023-01-26T03:55:57;1.10;99.90
13409;DHT22;6775;49.574;11.170;2023-01-26T03:58:43;1.10;99.90
13409;DHT22;6775;49.574;11.170;2023-01-26T04:01:12;1.10;99.90
13409;DHT22;6775;49.574;11.170;2023-01-26T04:03:46;1.10;99.90
13409;DHT22;6775;49.574;11.170;2023-01-26T04:06:34;1.10;99.90
13409;DHT22;6775;49.574;11.170;2023-01-26T04:09:20;1.10;99.90
13409;DHT22;6775;49.574;11.170;2023-01-26T04:11:48;1.10;99.90
13409;DHT22;6775;49.574;11.170;2023-01-26T04:14:16;1.00;99.90
13409;DHT22;6775;49.574;11.170;2023-01-26T04:17:14;1.00;99.90
13409;DHT22;6775;49.574;11.170;2023-01-26T04:20:00;1.00;99.90
13409;DHT22;6775;49.574;11.170;2023-01-26T04:22:46;1.00;99.90
13409;DHT22;6775;49.574;11.170;2023-01-26T04:25:16;1.00;99.90
13409;DHT22;6775;49.574;11.170;2023-01-26T04:27:45;1.00;99.90
13409;DHT22;6775;49.574;11.170;2023-01-26T04:30:14;1.00;99.90
13409;DHT22;6775;49.574;11.170;2023-01-26T04:32:43;1.00;99.90
13409;DHT22;6775;49.574;11.170;2023-01-26T04:35:12;1.10;99.90
13409;DHT22;6775;49.574;11.170;2023-01-26T04:37:40;1.10;99.90
13409;DHT22;6775;49.574;11.170;2023-01-26T04:40:10;1.10;99.90
13409;DHT22;6775;49.574;11.170;2023-01-26T04:42:38;1.10;99.90
13409;DHT22;6775;49.574;11.170;2023-01-26T04:45:08;1.10;99.90
13409;DHT22;6775;49.574;11.170;2023-01-26T04:47:36;1.10;99.90
13409;DHT22;6775;49.574;11.170;2023-01-26T04:50:04;1.10;99.90
13409;DHT22;6775;49.574;11.170;2023-01-26T04:52:32;1.10;99.90
13409;DHT22;6775;49.574;11.170;2023-01-26T04:55:00;1.10;99.90
13409;DHT22;6775;49.574;11.170;2023-01-26T04:57:29;1.20;99.90
13409;DHT22;6775;49.574;11.170;2023-01-26T04:59:57;1.20;99.90
13409;DHT22;6775;49.574;11.170;2023-01-26T05:02:25;1.30;99.90
13409;DHT22;6775;49.574;11.170;2023-01-26T05:04:52;1.20;99.90
13409;DHT22;6775;49.574;11.170;2023-01-26T05:07:20;1.20;99.90
13409;DHT22;6775;49.574;11.170;2023-01-26T05:09:48;1.20;99.90
13409;DHT22;6775;49.574;11.170;2023-01-26T05:12:16;1.20;99.90
13409;DHT22;6775;49.574;11.170;2023-01-26T05:15:02;1.10;99.90
13409;DHT22;6775;49.574;11.170;2023-01-26T05:17:29;1.10;99.90
13409;DHT22;6775;49.574;11.170;2023-01-26T05:19:57;1.10;99.90
13409;DHT22;6775;49.574;11.170;2023-01-26T05:22:27;1.10;99.90
13409;DHT22;6775;49.574;11.170;2023-01-26T05:24:55;1.10;99.90
13409;DHT22;6775;49.574;11.170;2023-01-26T05:27:22;1.10;99.90
13409;DHT22;6775;49.574;11.170;2023-01-26T05:29:51;1.10;99.90
13409;DHT22;6775;49.574;11.170;2023-01-26T05:32:22;1.00;99.90
13409;DHT22;6775;49.574;11.170;2023-01-26T05:34:49;1.00;99.90
13409;DHT22;6775;49.574;11.170;2023-01-26T05:37:17;1.00;99.90
13409;DHT22;6775;49.574;11.170;2023-01-26T05:39:45;1.00;99.90
13409;DHT22;6775;49.574;11.170;2023-01-26T05:42:13;1.00;99.90
13409;DHT22;6775;49.574;11.170;2023-01-26T05:44:41;1.00;99.90
13409;DHT22;6775;49.574;11.170;2023-01-26T05:47:09;1.00;99.90
13409;DHT22;6775;49.574;11.170;2023-01-26T05:49:38;0.90;99.90
13409;DHT22;6775;49.574;11.170;2023-01-26T05:52:08;1.00;99.90
13409;DHT22;6775;49.574;11.170;2023-01-26T05:54:37;1.00;99.90
13409;DHT22;6775;49.574;11.170;2023-01-26T05:57:05;1.00;99.90
13409;DHT22;6775;49.574;11.170;2023-01-26T05:59:33;1.00;99.90
13409;DHT22;6775;49.574;11.170;2023-01-26T06:02:01;1.00;99.90
13409;DHT22;6775;49.574;11.170;2023-01-26T06:04:29;1.00;99.90
13409;DHT22;6775;49.574;11.170;2023-01-26T06:06:58;0.90;99.90
13409;DHT22;6775;49.574;11.170;2023-01-26T06:09:26;1.00;99.90
13409;DHT22;6775;49.574;11.170;2023-01-26T06:11:55;1.00;99.90
13409;DHT22;6775;49.574;11.170;2023-01-26T06:14:23;1.00;99.90
13409;DHT22;6775;49.574;11.170;2023-01-26T06:16:51;1.10;99.90
13409;DHT22;6775;49.574;11.170;2023-01-26T06:19:20;1.00;99.90
13409;DHT22;6775;49.574;11.170;2023-01-26T06:21:48;1.10;99.90
13409;DHT22;6775;49.574;11.170;2023-01-26T06:24:17;1.10;99.90
13409;DHT22;6775;49.574;11.170;2023-01-26T06:26:46;1.20;99.90
13409;DHT22;6775;49.574;11.170;2023-01-26T06:29:14;1.10;99.90
13409;DHT22;6775;49.574;11.170;2023-01-26T06:31:42;1.20;99.90
13409;DHT22;6775;49.574;11.170;2023-01-26T06:34:10;1.10;99.90
13409;DHT22;6775;49.574;11.170;2023-01-26T06:36:38;1.20;99.90
13409;DHT22;6775;49.574;11.170;2023-01-26T06:39:06;1.10;99.90
13409;DHT22;6775;49.574;11.170;2023-01-26T06:41:35;1.10;99.90
13409;DHT22;6775;49.574;11.170;2023-01-26T06:44:03;1.10;99.90
13409;DHT22;6775;49.574;11.170;2023-01-26T06:46:31;1.10;99.90
13409;DHT22;6775;49.574;11.170;2023-01-26T06:49:00;1.10;99.90
13409;DHT22;6775;49.574;11.170;2023-01-26T06:51:43;1.10;99.90
13409;DHT22;6775;49.574;11.170;2023-01-26T06:54:13;1.10;99.90
13409;DHT22;6775;49.574;11.170;2023-01-26T06:56:42;1.10;99.90
13409;DHT22;6775;49.574;11.170;2023-01-26T06:59:11;1.10;99.90
13409;DHT22;6775;49.574;11.170;2023-01-26T07:01:42;1.10;99.90
13409;DHT22;6775;49.574;11.170;2023-01-26T07:04:10;1.10;99.90
13409;DHT22;6775;49.574;11.170;2023-01-26T07:06:38;1.10;99.90
13409;DHT22;6775;49.574;11.170;2023-01-26T07:09:06;1.10;99.90
13409;DHT22;6775;49.574;11.170;2023-01-26T07:11:34;1.10;99.90
13409;DHT22;6775;49.574;11.170;2023-01-26T07:14:03;1.10;99.90
13409;DHT22;6775;49.574;11.170;2023-01-26T07:16:31;1.10;99.90
13409;DHT22;6775;49.574;11.170;2023-01-26T07:19:00;1.10;99.90
13409;DHT22;6775;49.574;11.170;2023-01-26T07:21:27;1.10;99.90
13409;DHT22;6775;49.574;11.170;2023-01-26T07:23:55;1.10;99.90
13409;DHT22;6775;49.574;11.170;2023-01-26T07:26:23;1.20;99.90
13409;DHT22;6775;49.574;11.170;2023-01-26T07:28:51;1.20;99.90
13409;DHT22;6775;49.574;11.170;2023-01-26T07:31:20;1.20;99.90
13409;DHT22;6775;49.574;11.170;2023-01-26T07:33:48;1.20;99.90
13409;DHT22;6775;49.574;11.170;2023-01-26T07:36:16;1.20;99.90
13409;DHT22;6775;49.574;11.170;2023-01-26T07:38:44;1.20;99.90
13409;DHT22;6775;49.574;11.170;2023-01-26T07:41:12;1.20;99.90
13409;DHT22;6775;49.574;11.170;2023-01-26T07:43:40;1.10;99.90
13409;DHT22;6775;49.574;11.170;2023-01-26T07:46:08;1.10;99.90
13409;DHT22;6775;49.574;11.170;2023-01-26T07:48:39;1.20;99.90
13409;DHT22;6775;49.574;11.170;2023-01-26T07:51:07;1.20;99.90
13409;DHT22;6775;49.574;11.170;2023-01-26T07:53:36;1.10;99.90
13409;DHT22;6775;49.574;11.170;2023-01-26T07:56:09;1.10;99.90
13409;DHT22;6775;49.574;11.170;2023-01-26T07:58:38;1.10;99.90
13409;DHT22;6775;49.574;11.170;2023-01-26T08:01:07;1.10;99.90
13409;DHT22;6775;49.574;11.170;2023-01-26T08:03:35;1.10;99.90
13409;DHT22;6775;49.574;11.170;2023-01-26T08:06:05;1.10;99.90
13409;DHT22;6775;49.574;11.170;2023-01-26T08:08:37;1.10;99.90
13409;DHT22;6775;49.574;11.170;2023-01-26T08:11:06;1.10;99.90
13409;DHT22;6775;49.574;11.170;2023-01-26T08:13:34;1.10;99.90
13409;DHT22;6775;49.574;11.170;2023-01-26T08:16:04;1.10;99.90
13409;DHT22;6775;49.574;11.170;2023-01-26T08:18:32;1.10;99.90
13409;DHT22;6775;49.574;11.170;2023-01-26T08:21:00;1.10;99.90
13409;DHT22;6775;49.574;11.170;2023-01-26T08:23:29;1.10;99.90
13409;DHT22;6775;49.574;11.170;2023-01-26T08:26:00;1.10;99.90
13409;DHT22;6775;49.574;11.170;2023-01-26T08:28:29;1.10;99.90
13409;DHT22;6775;49.574;11.170;2023-01-26T08:31:02;1.10;99.90
13409;DHT22;6775;49.574;11.170;2023-01-26T08:33:31;1.10;99.90
13409;DHT22;6775;49.574;11.170;2023-01-26T08:36:02;1.20;99.90
13409;DHT22;6775;49.574;11.170;2023-01-26T08:38:33;1.20;99.90
13409;DHT22;6775;49.574;11.170;2023-01-26T08:41:01;0.70;99.90
13409;DHT22;6775;49.574;11.170;2023-01-26T08:43:29;1.20;99.90
13409;DHT22;6775;49.574;11.170;2023-01-26T08:45:57;1.10;99.90
13409;DHT22;6775;49.574;11.170;2023-01-26T08:48:25;1.10;99.90
13409;DHT22;6775;49.574;11.170;2023-01-26T08:50:54;1.10;99.90
13409;DHT22;6775;49.574;11.170;2023-01-26T08:53:22;1.00;99.90
13409;DHT22;6775;49.574;11.170;2023-01-26T08:55:52;1.00;99.90
13409;DHT22;6775;49.574;11.170;2023-01-26T08:58:19;1.10;99.90
13409;DHT22;6775;49.574;11.170;2023-01-26T09:00:47;1.10;99.90
13409;DHT22;6775;49.574;11.170;2023-01-26T09:03:15;1.10;99.90
13409;DHT22;6775;49.574;11.170;2023-01-26T09:05:43;1.10;99.90
13409;DHT22;6775;49.574;11.170;2023-01-26T09:08:11;1.10;99.90
13409;DHT22;6775;49.574;11.170;2023-01-26T09:10:39;1.20;99.90
13409;DHT22;6775;49.574;11.170;2023-01-26T09:13:09;1.20;99.90
13409;DHT22;6775;49.574;11.170;2023-01-26T09:15:37;1.20;99.90
13409;DHT22;6775;49.574;11.170;2023-01-26T09:18:05;1.20;99.90
13409;DHT22;6775;49.574;11.170;2023-01-26T09:20:33;1.20;99.90
13409;DHT22;6775;49.574;11.170;2023-01-26T09:23:01;1.70;99.90
13409;DHT22;6775;49.574;11.170;2023-01-26T09:25:29;1.20;99.90
13409;DHT22;6775;49.574;11.170;2023-01-26T09:27:56;1.20;99.90
13409;DHT22;6775;49.574;11.170;2023-01-26T09:30:26;1.30;99.90
13409;DHT22;6775;49.574;11.170;2023-01-26T09:32:57;1.30;99.90
13409;DHT22;6775;49.574;11.170;2023-01-26T09:35:25;1.30;99.90
13409;DHT22;6775;49.574;11.170;2023-01-26T09:37:53;1.30;99.90
13409;DHT22;6775;49.574;11.170;2023-01-26T09:40:28;1.30;99.90
13409;DHT22;6775;49.574;11.170;2023-01-26T09:43:05;1.30;99.90
13409;DHT22;6775;49.574;11.170;2023-01-26T09:45:45;1.30;99.90
13409;DHT22;6775;49.574;11.170;2023-01-26T09:48:25;1.20;99.90
13409;DHT22;6775;49.574;11.170;2023-01-26T09:50:59;1.30;99.90
13409;DHT22;6775;49.574;11.170;2023-01-26T09:53:33;1.30;99.90
13409;DHT22;6775;49.574;11.170;2023-01-26T09:56:12;1.30;99.90
13409;DHT22;6775;49.574;11.170;2023-01-26T09:58:44;1.30;99.90
13409;DHT22;6775;49.574;11.170;2023-01-26T10:01:19;1.30;99.90
13409;DHT22;6775;49.574;11.170;2023-01-26T10:03:50;1.30;99.90
13409;DHT22;6775;49.574;11.170;2023-01-26T10:06:25;1.30;99.90
13409;DHT22;6775;49.574;11.170;2023-01-26T10:08:55;1.30;99.90
13409;DHT22;6775;49.574;11.170;2023-01-26T10:11:26;1.30;99.90
13409;DHT22;6775;49.574;11.170;2023-01-26T10:14:02;1.30;99.90
13409;DHT22;6775;49.574;11.170;2023-01-26T10:16:33;1.30;99.90
13409;DHT22;6775;49.574;11.170;2023-01-26T10:19:04;1.30;99.90
13409;DHT22;6775;49.574;11.170;2023-01-26T10:21:37;1.30;99.90
13409;DHT22;6775;49.574;11.170;2023-01-26T10:24:08;1.30;99.90
13409;DHT22;6775;49.574;11.170;2023-01-26T10:26:38;1.30;99.90
13409;DHT22;6775;49.574;11.170;2023-01-26T10:29:12;1.30;99.90
13409;DHT22;6775;49.574;11.170;2023-01-26T10:31:43;1.30;99.90
13409;DHT22;6775;49.574;11.170;2023-01-26T10:34:21;1.30;99.90
13409;DHT22;6775;49.574;11.170;2023-01-26T10:36:49;1.20;99.90
13409;DHT22;6775;49.574;11.170;2023-01-26T10:39:17;1.30;99.90
13409;DHT22;6775;49.574;11.170;2023-01-26T10:41:56;1.20;99.90
13409;DHT22;6775;49.574;11.170;2023-01-26T10:44:30;1.20;99.90
13409;DHT22;6775;49.574;11.170;2023-01-26T10:47:05;1.10;99.90
13409;DHT22;6775;49.574;11.170;2023-01-26T10:49:33;1.10;99.90
13409;DHT22;6775;49.574;11.170;2023-01-26T10:52:07;1.20;99.90
13409;DHT22;6775;49.574;11.170;2023-01-26T10:54:35;1.20;99.90
13409;DHT22;6775;49.574;11.170;2023-01-26T10:57:05;1.20;99.90
13409;DHT22;6775;49.574;11.170;2023-01-26T10:59:43;1.20;99.90
13409;DHT22;6775;49.574;11.170;2023-01-26T11:02:25;1.20;99.90
13409;DHT22;6775;49.574;11.170;2023-01-26T11:05:02;1.10;99.90
13409;DHT22;6775;49.574;11.170;2023-01-26T11:07:32;1.00;99.90
13409;DHT22;6775;49.574;11.170;2023-01-26T11:10:17;1.00;99.90
13409;DHT22;6775;49.574;11.170;2023-01-26T11:12:45;1.00;99.90
13409;DHT22;6775;49.574;11.170;2023-01-26T11:15:18;1.00;99.90
13409;DHT22;6775;49.574;11.170;2023-01-26T11:17:58;1.10;99.90
13409;DHT22;6775;49.574;11.170;2023-01-26T11:20:46;1.10;99.90
13409;DHT22;6775;49.574;11.170;2023-01-26T11:26:33;1.00;99.90
13409;DHT22;6775;49.574;11.170;2023-01-26T11:29:23;1.00;99.90
13409;DHT22;6775;49.574;11.170;2023-01-26T11:32:03;1.00;99.90
13409;DHT22;6775;49.574;11.170;2023-01-26T11:34:41;1.00;99.90
13409;DHT22;6775;49.574;11.170;2023-01-26T11:37:32;1.00;99.90
13409;DHT22;6775;49.574;11.170;2023-01-26T11:40:18;1.10;99.90
13409;DHT22;6775;49.574;11.170;2023-01-26T11:42:56;1.20;99.90
13409;DHT22;6775;49.574;11.170;2023-01-26T11:45:27;1.20;99.90
13409;DHT22;6775;49.574;11.170;2023-01-26T11:48:07;1.20;99.90
13409;DHT22;6775;49.574;11.170;2023-01-26T11:50:43;1.20;99.90
13409;DHT22;6775;49.574;11.170;2023-01-26T11:53:30;1.20;99.90
13409;DHT22;6775;49.574;11.170;2023-01-26T11:56:23;1.20;99.90
13409;DHT22;6775;49.574;11.170;2023-01-26T11:58:56;1.10;99.90
13409;DHT22;6775;49.574;11.170;2023-01-26T12:01:27;1.10;99.90
13409;DHT22;6775;49.574;11.170;2023-01-26T12:03:56;1.10;99.90
13409;DHT22;6775;49.574;11.170;2023-01-26T12:06:34;1.10;99.90
13409;DHT22;6775;49.574;11.170;2023-01-26T12:09:05;1.10;99.90
13409;DHT22;6775;49.574;11.170;2023-01-26T12:11:39;1.10;99.90
13409;DHT22;6775;49.574;11.170;2023-01-26T12:14:19;1.10;99.90
13409;DHT22;6775;49.574;11.170;2023-01-26T12:16:58;1.00;99.90
13409;DHT22;6775;49.574;11.170;2023-01-26T12:19:48;1.00;99.90
13409;DHT22;6775;49.574;11.170;2023-01-26T12:22:25;1.10;99.90
13409;DHT22;6775;49.574;11.170;2023-01-26T12:24:57;1.10;99.90
13409;DHT22;6775;49.574;11.170;2023-01-26T12:27:49;1.20;99.90
13409;DHT22;6775;49.574;11.170;2023-01-26T12:30:27;1.20;99.90
13409;DHT22;6775;49.574;11.170;2023-01-26T12:32:58;1.20;99.90
13409;DHT22;6775;49.574;11.170;2023-01-26T12:35:49;1.20;99.90
13409;DHT22;6775;49.574;11.170;2023-01-26T12:38:25;1.20;99.90
13409;DHT22;6775;49.574;11.170;2023-01-26T12:41:05;1.20;99.90
13409;DHT22;6775;49.574;11.170;2023-01-26T12:43:47;1.20;99.90
13409;DHT22;6775;49.574;11.170;2023-01-26T12:46:18;1.20;99.90
13409;DHT22;6775;49.574;11.170;2023-01-26T12:48:51;1.20;99.90
13409;DHT22;6775;49.574;11.170;2023-01-26T12:51:24;1.10;99.90
13409;DHT22;6775;49.574;11.170;2023-01-26T12:54:00;1.20;99.90
13409;DHT22;6775;49.574;11.170;2023-01-26T12:56:31;1.20;99.90
13409;DHT22;6775;49.574;11.170;2023-01-26T12:59:08;1.20;99.90
13409;DHT22;6775;49.574;11.170;2023-01-26T13:02:00;1.20;99.90
13409;DHT22;6775;49.574;11.170;2023-01-26T13:04:36;1.20;99.90
13409;DHT22;6775;49.574;11.170;2023-01-26T13:07:25;1.20;99.90
13409;DHT22;6775;49.574;11.170;2023-01-26T13:10:21;1.20;99.90
13409;DHT22;6775;49.574;11.170;2023-01-26T13:12:54;1.20;99.90
13409;DHT22;6775;49.574;11.170;2023-01-26T13:15:24;1.20;99.90
13409;DHT22;6775;49.574;11.170;2023-01-26T13:17:56;1.20;99.90
13409;DHT22;6775;49.574;11.170;2023-01-26T13:23:39;1.30;99.90
13409;DHT22;6775;49.574;11.170;2023-01-26T13:29:32;1.20;99.90
13409;DHT22;6775;49.574;11.170;2023-01-26T13:34:47;1.30;99.90
13409;DHT22;6775;49.574;11.170;2023-01-26T13:37:24;1.30;99.90
13409;DHT22;6775;49.574;11.170;2023-01-26T13:39:57;1.30;99.90
13409;DHT22;6775;49.574;11.170;2023-01-26T13:42:34;1.30;99.90
13409;DHT22;6775;49.574;11.170;2023-01-26T13:45:13;1.20;99.90
13409;DHT22;6775;49.574;11.170;2023-01-26T13:47:45;1.20;99.90
13409;DHT22;6775;49.574;11.170;2023-01-26T13:50:28;1.10;99.90
13409;DHT22;6775;49.574;11.170;2023-01-26T13:52:56;0.90;99.90
13409;DHT22;6775;49.574;11.170;2023-01-26T13:55:26;0.90;99.90
13409;DHT22;6775;49.574;11.170;2023-01-26T13:58:10;0.90;99.90
13409;DHT22;6775;49.574;11.170;2023-01-26T14:00:40;1.00;99.90
13409;DHT22;6775;49.574;11.170;2023-01-26T14:03:19;1.00;99.90
13409;DHT22;6775;49.574;11.170;2023-01-26T14:05:51;1.10;99.90
13409;DHT22;6775;49.574;11.170;2023-01-26T14:08:19;1.10;99.90
13409;DHT22;6775;49.574;11.170;2023-01-26T14:10:48;1.20;99.90
13409;DHT22;6775;49.574;11.170;2023-01-26T14:13:22;1.20;99.90
13409;DHT22;6775;49.574;11.170;2023-01-26T14:15:59;1.20;99.90
13409;DHT22;6775;49.574;11.170;2023-01-26T14:18:27;1.20;99.90
13409;DHT22;6775;49.574;11.170;2023-01-26T14:21:05;1.20;99.90
13409;DHT22;6775;49.574;11.170;2023-01-26T14:23:34;1.20;99.90
13409;DHT22;6775;49.574;11.170;2023-01-26T14:26:05;1.20;99.90
13409;DHT22;6775;49.574;11.170;2023-01-26T14:28:40;1.20;99.90
13409;DHT22;6775;49.574;11.170;2023-01-26T14:31:15;1.10;99.90
13409;DHT22;6775;49.574;11.170;2023-01-26T14:33:45;1.00;99.90
13409;DHT22;6775;49.574;11.170;2023-01-26T14:36:15;0.90;99.90
13409;DHT22;6775;49.574;11.170;2023-01-26T14:38:45;0.80;99.90
13409;DHT22;6775;49.574;11.170;2023-01-26T14:41:16;0.70;99.90
13409;DHT22;6775;49.574;11.170;2023-01-26T14:43:45;0.80;99.90
13409;DHT22;6775;49.574;11.170;2023-01-26T14:46:16;0.80;99.90
13409;DHT22;6775;49.574;11.170;2023-01-26T14:48:47;0.80;99.90
13409;DHT22;6775;49.574;11.170;2023-01-26T14:51:20;0.80;99.90
13409;DHT22;6775;49.574;11.170;2023-01-26T14:53:49;0.90;99.90
13409;DHT22;6775;49.574;11.170;2023-01-26T14:56:19;0.90;99.90
13409;DHT22;6775;49.574;11.170;2023-01-26T14:58:52;1.00;99.90
13409;DHT22;6775;49.574;11.170;2023-01-26T15:01:24;1.00;99.90
13409;DHT22;6775;49.574;11.170;2023-01-26T15:03:58;1.00;99.90
13409;DHT22;6775;49.574;11.170;2023-01-26T15:06:28;1.00;99.90
13409;DHT22;6775;49.574;11.170;2023-01-26T15:09:01;1.00;99.90
13409;DHT22;6775;49.574;11.170;2023-01-26T15:11:34;1.10;99.90
13409;DHT22;6775;49.574;11.170;2023-01-26T15:14:31;1.10;99.90
13409;DHT22;6775;49.574;11.170;2023-01-26T15:17:01;1.10;99.90
13409;DHT22;6775;49.574;11.170;2023-01-26T15:19:40;1.10;99.90
13409;DHT22;6775;49.574;11.170;2023-01-26T15:22:19;1.10;99.90
13409;DHT22;6775;49.574;11.170;2023-01-26T15:24:59;1.00;99.90
13409;DHT22;6775;49.574;11.170;2023-01-26T15:27:31;0.90;99.90
13409;DHT22;6775;49.574;11.170;2023-01-26T15:30:00;0.80;99.90
13409;DHT22;6775;49.574;11.170;2023-01-26T15:32:36;0.80;99.90
13409;DHT22;6775;49.574;11.170;2023-01-26T15:37:58;0.90;99.90
13409;DHT22;6775;49.574;11.170;2023-01-26T15:40:27;0.90;99.90
13409;DHT22;6775;49.574;11.170;2023-01-26T15:43:09;0.90;99.90
13409;DHT22;6775;49.574;11.170;2023-01-26T15:45:38;1.00;99.90
13409;DHT22;6775;49.574;11.170;2023-01-26T15:48:10;1.00;99.90
13409;DHT22;6775;49.574;11.170;2023-01-26T15:50:38;1.00;99.90
13409;DHT22;6775;49.574;11.170;2023-01-26T15:53:10;1.10;99.90
13409;DHT22;6775;49.574;11.170;2023-01-26T15:55:40;1.10;99.90
13409;DHT22;6775;49.574;11.170;2023-01-26T15:58:09;1.10;99.90
13409;DHT22;6775;49.574;11.170;2023-01-26T16:00:37;1.10;99.90
13409;DHT22;6775;49.574;11.170;2023-01-26T16:03:11;1.10;99.90
13409;DHT22;6775;49.574;11.170;2023-01-26T16:05:40;1.10;99.90
13409;DHT22;6775;49.574;11.170;2023-01-26T16:08:09;1.10;99.90
13409;DHT22;6775;49.574;11.170;2023-01-26T16:10:37;1.10;99.90
13409;DHT22;6775;49.574;11.170;2023-01-26T16:13:08;1.10;99.90
13409;DHT22;6775;49.574;11.170;2023-01-26T16:15:38;1.10;99.90
13409;DHT22;6775;49.574;11.170;2023-01-26T16:18:08;1.10;99.90
13409;DHT22;6775;49.574;11.170;2023-01-26T16:20:38;1.10;99.90
13409;DHT22;6775;49.574;11.170;2023-01-26T16:23:16;1.10;99.90
13409;DHT22;6775;49.574;11.170;2023-01-26T16:25:44;1.10;99.90
13409;DHT22;6775;49.574;11.170;2023-01-26T16:28:12;1.10;99.90
13409;DHT22;6775;49.574;11.170;2023-01-26T16:30:41;1.10;99.90
13409;DHT22;6775;49.574;11.170;2023-01-26T16:33:11;1.10;99.90
13409;DHT22;6775;49.574;11.170;2023-01-26T16:35:40;1.10;99.90